createdAt,value
2023-01-31T00:01:40.199Z,100150.53
2023-01-31T00:04:12.624Z,100146.50
2023-01-31T00:06:42.555Z,100149.91
2023-01-31T00:09:12.009Z,100145.50
2023-01-31T00:11:39.290Z,100141.13
2023-01-31T00:14:07.787Z,100150.59
2023-01-31T00:16:35.089Z,100143.84
2023-01-31T00:19:02.751Z,100143.84
2023-01-31T00:21:30.881Z,100144.13
2023-01-31T00:23:59.172Z,100147.44
2023-01-31T00:26:31.888Z,100131.34
2023-01-31T00:29:01.597Z,100134.13
2023-01-31T00:31:30.925Z,100134.16
2023-01-31T00:33:58.464Z,100130.53
2023-01-31T00:36:28.208Z,100129.94
2023-01-31T00:38:57.772Z,100135.59
2023-01-31T00:41:26.101Z,100141.91
2023-01-31T00:43:53.084Z,100132.50
2023-01-31T00:46:23.981Z,100132.47
2023-01-31T00:48:51.116Z,100126.03
2023-01-31T00:51:19.581Z,100112.84
2023-01-31T00:53:47.463Z,100122.03
2023-01-31T00:56:16.934Z,100116.16
2023-01-31T00:58:44.153Z,100109.16
2023-01-31T01:01:14.113Z,100110.56
2023-01-31T01:03:43.231Z,100107.22
2023-01-31T01:06:10.909Z,100106.47
2023-01-31T01:08:39.619Z,100097.97
2023-01-31T01:11:32.069Z,100102.91
2023-01-31T01:14:00.801Z,100098.81
2023-01-31T01:16:38.087Z,100094.22
2023-01-31T01:19:07.954Z,100088.50
2023-01-31T01:21:41.260Z,100090.31
2023-01-31T01:24:14.950Z,100085.03
2023-01-31T01:26:42.891Z,100085.94
2023-01-31T01:29:10.189Z,100078.28
2023-01-31T01:31:38.487Z,100081.25
2023-01-31T01:34:16.448Z,100081.25
2023-01-31T01:36:45.553Z,100076.59
2023-01-31T01:39:16.861Z,100082.88
2023-01-31T01:41:44.735Z,100073.13
2023-01-31T01:44:48.990Z,100072.88
2023-01-31T01:47:26.364Z,100068.00
2023-01-31T01:50:16.766Z,100058.31
2023-01-31T01:52:51.235Z,100050.34
2023-01-31T01:55:29.284Z,100046.63
2023-01-31T01:58:20.828Z,100043.41
2023-01-31T02:00:50.045Z,100052.53
2023-01-31T02:03:18.439Z,100052.34
2023-01-31T02:05:54.107Z,100051.84
2023-01-31T02:08:23.949Z,100049.53
2023-01-31T02:10:57.489Z,100059.66
2023-01-31T02:13:25.236Z,100058.38
2023-01-31T02:15:52.151Z,100062.66
2023-01-31T02:18:22.067Z,100057.31
2023-01-31T02:21:19.988Z,100066.03
2023-01-31T02:24:16.432Z,100060.13
2023-01-31T02:27:20.908Z,100069.97
2023-01-31T02:30:38.473Z,100062.13
2023-01-31T02:33:21.776Z,100064.31
2023-01-31T02:36:10.261Z,100059.47
2023-01-31T02:39:12.599Z,100061.09
2023-01-31T02:42:12.544Z,100055.41
2023-01-31T02:45:09.740Z,100057.84
2023-01-31T02:47:49.005Z,100062.19
2023-01-31T02:50:27.087Z,100057.31
2023-01-31T02:53:03.736Z,100052.66
2023-01-31T02:55:58.477Z,100052.66
2023-01-31T02:58:31.248Z,100045.78
2023-01-31T03:01:00.904Z,100058.00
2023-01-31T03:03:38.082Z,100059.78
2023-01-31T03:06:29.904Z,100055.13
2023-01-31T03:09:22.126Z,100053.56
2023-01-31T03:27:52.805Z,100035.50
2023-01-31T03:30:27.765Z,100040.91
2023-01-31T03:33:00.855Z,100038.78
2023-01-31T03:35:31.763Z,100038.75
2023-01-31T03:38:17.857Z,100042.44
2023-01-31T03:41:08.357Z,100036.97
2023-01-31T03:43:44.831Z,100039.41
2023-01-31T03:46:17.922Z,100039.13
2023-01-31T03:48:48.854Z,100046.94
2023-01-31T03:51:23.313Z,100043.81
2023-01-31T03:53:55.044Z,100048.31
2023-01-31T03:56:28.361Z,100051.13
2023-01-31T03:59:06.152Z,100048.94
2023-01-31T04:01:37.097Z,100049.78
2023-01-31T04:04:09.326Z,100047.88
2023-01-31T04:06:37.077Z,100040.44
2023-01-31T04:09:06.761Z,100044.16
2023-01-31T04:11:39.084Z,100040.97
2023-01-31T04:14:06.368Z,100050.16
2023-01-31T04:16:33.568Z,100042.22
2023-01-31T04:19:00.420Z,100051.69
2023-01-31T04:21:27.375Z,100057.19
2023-01-31T04:23:54.231Z,100047.50
2023-01-31T04:26:21.179Z,100051.66
2023-01-31T04:28:47.994Z,100059.88
2023-01-31T04:31:14.966Z,100054.94
2023-01-31T04:33:41.826Z,100065.25
2023-01-31T04:36:09.252Z,100054.56
2023-01-31T04:38:36.506Z,100056.97
2023-01-31T04:41:03.548Z,100063.75
2023-01-31T04:43:30.432Z,100067.28
2023-01-31T04:45:57.250Z,100074.50
2023-01-31T04:48:24.054Z,100074.13
2023-01-31T04:50:50.948Z,100077.84
2023-01-31T04:53:17.820Z,100088.09
2023-01-31T04:55:44.762Z,100094.69
2023-01-31T04:58:11.931Z,100100.84
2023-01-31T05:00:38.834Z,100096.75
2023-01-31T05:03:06.236Z,100098.34
2023-01-31T05:05:35.974Z,100092.44
2023-01-31T05:08:03.340Z,100095.63
2023-01-31T05:10:30.309Z,100093.09
2023-01-31T05:12:57.152Z,100099.09
2023-01-31T05:18:26.449Z,100096.25
2023-01-31T05:20:53.341Z,100090.97
2023-01-31T05:23:20.433Z,100101.97
2023-01-31T05:25:49.953Z,100096.41
2023-01-31T05:28:17.277Z,100096.09
2023-01-31T05:30:44.688Z,100106.72
2023-01-31T05:33:12.115Z,100105.72
2023-01-31T05:35:39.641Z,100101.59
2023-01-31T05:38:06.922Z,100107.56
2023-01-31T05:40:34.025Z,100117.91
2023-01-31T05:43:01.843Z,100113.78
2023-01-31T05:45:29.300Z,100111.38
2023-01-31T05:47:56.932Z,100113.19
2023-01-31T05:50:24.018Z,100128.72
2023-01-31T05:52:55.346Z,100119.03
2023-01-31T05:55:23.074Z,100122.25
2023-01-31T05:57:50.009Z,100117.81
2023-01-31T06:00:17.276Z,100115.03
2023-01-31T06:02:44.132Z,100124.28
2023-01-31T06:05:11.583Z,100120.13
2023-01-31T06:07:39.312Z,100124.66
2023-01-31T06:10:08.117Z,100130.81
2023-01-31T06:12:35.648Z,100135.94
2023-01-31T06:15:03.188Z,100138.66
2023-01-31T06:17:31.239Z,100135.41
2023-01-31T06:19:58.183Z,100132.41
2023-01-31T06:22:25.134Z,100127.28
2023-01-31T06:24:52.012Z,100135.03
2023-01-31T06:27:18.848Z,100135.03
2023-01-31T06:29:45.685Z,100138.34
2023-01-31T06:32:12.553Z,100135.59
2023-01-31T06:34:39.414Z,100143.53
2023-01-31T06:37:09.695Z,100141.13
2023-01-31T06:39:36.928Z,100140.72
2023-01-31T06:42:04.263Z,100144.97
2023-01-31T06:44:33.305Z,100154.63
2023-01-31T06:47:01.615Z,100153.09
2023-01-31T06:49:28.615Z,100156.88
2023-01-31T06:51:55.672Z,100159.13
2023-01-31T06:54:22.602Z,100154.78
2023-01-31T06:56:49.604Z,100161.88
2023-01-31T06:59:16.545Z,100160.84
2023-01-31T07:01:43.428Z,100167.13
2023-01-31T07:04:10.407Z,100177.47
2023-01-31T07:06:37.262Z,100168.56
2023-01-31T07:09:04.542Z,100169.22
2023-01-31T07:11:31.539Z,100173.66
2023-01-31T07:13:58.659Z,100179.66
2023-01-31T07:16:26.204Z,100181.59
2023-01-31T07:18:54.246Z,100186.44
2023-01-31T07:21:22.482Z,100189.19
2023-01-31T07:23:49.681Z,100181.09
2023-01-31T07:26:17.083Z,100185.50
2023-01-31T07:28:44.121Z,100184.44
2023-01-31T07:31:13.247Z,100176.53
2023-01-31T07:33:40.588Z,100177.03
2023-01-31T07:36:08.724Z,100175.72
2023-01-31T07:38:35.794Z,100172.72
2023-01-31T07:41:04.565Z,100176.75
2023-01-31T07:43:32.529Z,100182.88
2023-01-31T07:45:59.502Z,100183.06
2023-01-31T07:48:26.670Z,100180.47
2023-01-31T07:51:01.672Z,100177.75
2023-01-31T07:53:32.264Z,100189.44
2023-01-31T07:56:14.484Z,100184.31
2023-01-31T07:58:42.735Z,100177.22
2023-01-31T08:01:38.784Z,100176.47
2023-01-31T08:04:19.960Z,100183.78
2023-01-31T08:06:49.052Z,100186.03
2023-01-31T08:09:16.046Z,100177.16
2023-01-31T08:11:43.087Z,100176.09
2023-01-31T08:14:10.113Z,100178.81
2023-01-31T08:16:37.665Z,100179.38
2023-01-31T08:19:04.763Z,100177.44
2023-01-31T08:21:31.759Z,100177.72
2023-01-31T08:23:58.695Z,100183.72
2023-01-31T08:26:25.604Z,100187.25
2023-01-31T08:28:54.097Z,100188.91
2023-01-31T08:31:23.406Z,100191.91
2023-01-31T08:33:53.092Z,100199.78
2023-01-31T08:36:24.431Z,100205.78
2023-01-31T08:38:51.594Z,100202.53
2023-01-31T08:41:20.522Z,100213.09
2023-01-31T08:43:58.346Z,100203.91
2023-01-31T08:46:31.320Z,100200.94
2023-01-31T08:48:59.293Z,100205.00
2023-01-31T08:51:26.513Z,100198.47
2023-01-31T08:53:54.202Z,100195.75
2023-01-31T08:56:25.478Z,100201.19
2023-01-31T08:58:53.351Z,100209.53
2023-01-31T09:01:21.647Z,100204.03
2023-01-31T09:03:50.512Z,100201.88
2023-01-31T09:06:20.024Z,100208.97
2023-01-31T09:08:47.276Z,100210.78
2023-01-31T09:11:19.720Z,100203.88
2023-01-31T09:13:52.064Z,100200.78
2023-01-31T09:16:19.949Z,100208.34
2023-01-31T09:18:47.650Z,100206.72
2023-01-31T09:21:17.944Z,100213.13
2023-01-31T09:23:45.516Z,100212.72
2023-01-31T09:26:13.617Z,100212.94
2023-01-31T09:28:42.990Z,100207.00
2023-01-31T09:31:13.131Z,100204.56
2023-01-31T09:33:40.540Z,100201.97
2023-01-31T09:36:10.409Z,100203.19
2023-01-31T09:38:37.625Z,100208.09
2023-01-31T09:41:14.277Z,100198.34
2023-01-31T09:43:47.295Z,100200.09
2023-01-31T09:46:19.517Z,100196.94
2023-01-31T09:48:51.014Z,100202.34
2023-01-31T09:51:18.979Z,100204.09
2023-01-31T09:53:47.037Z,100200.94
2023-01-31T09:56:46.319Z,100194.44
2023-01-31T09:59:30.808Z,100203.75
2023-01-31T10:02:34.298Z,100196.66
2023-01-31T10:05:44.017Z,100193.78
2023-01-31T10:08:22.925Z,100190.59
2023-01-31T10:10:57.394Z,100197.25
2023-01-31T10:13:31.897Z,100194.38
2023-01-31T10:16:26.506Z,100191.41
2023-01-31T10:19:02.706Z,100193.25
2023-01-31T10:21:36.996Z,100186.22
2023-01-31T10:24:14.571Z,100180.16
2023-01-31T10:26:44.060Z,100180.44
2023-01-31T10:29:29.793Z,100178.09
2023-01-31T10:32:01.190Z,100177.22
2023-01-31T10:34:39.028Z,100186.00
2023-01-31T10:37:14.150Z,100179.97
2023-01-31T10:39:46.711Z,100187.94
2023-01-31T10:42:32.426Z,100189.03
2023-01-31T10:45:21.813Z,100178.56
2023-01-31T10:47:54.139Z,100182.53
2023-01-31T10:50:55.003Z,100178.63
2023-01-31T10:54:14.141Z,100186.53
2023-01-31T10:56:46.764Z,100178.50
2023-01-31T10:59:26.398Z,100183.13
2023-01-31T11:01:53.778Z,100175.22
2023-01-31T11:04:30.384Z,100180.44
2023-01-31T11:07:00.132Z,100180.63
2023-01-31T11:09:32.457Z,100183.28
2023-01-31T11:12:03.879Z,100182.19
2023-01-31T11:14:31.628Z,100190.44
2023-01-31T11:17:24.223Z,100181.56
2023-01-31T11:19:57.869Z,100183.06
2023-01-31T11:22:32.132Z,100182.19
2023-01-31T11:25:01.993Z,100177.31
2023-01-31T11:27:38.713Z,100181.09
2023-01-31T11:30:07.513Z,100175.72
2023-01-31T11:32:37.617Z,100180.09
2023-01-31T11:35:25.381Z,100176.75
2023-01-31T11:37:58.793Z,100175.28
2023-01-31T11:40:30.725Z,100177.97
2023-01-31T11:43:06.203Z,100179.38
2023-01-31T11:45:40.531Z,100180.69
2023-01-31T11:48:22.398Z,100178.09
2023-01-31T11:50:55.815Z,100183.69
2023-01-31T11:53:31.104Z,100173.47
2023-01-31T11:56:16.217Z,100175.19
2023-01-31T11:58:46.199Z,100180.81
2023-01-31T12:01:14.871Z,100179.59
2023-01-31T12:04:01.972Z,100174.72
2023-01-31T12:06:39.413Z,100183.16
2023-01-31T12:12:34.808Z,100171.94
2023-01-31T12:15:05.824Z,100168.34
2023-01-31T12:17:42.951Z,100170.19
2023-01-31T12:20:36.397Z,100169.25
2023-01-31T12:23:27.674Z,100173.63
2023-01-31T12:26:13.342Z,100187.41
2023-01-31T12:29:12.053Z,100178.06
2023-01-31T12:31:48.059Z,100177.53
2023-01-31T12:34:21.634Z,100186.97
2023-01-31T12:37:09.861Z,100190.38
2023-01-31T12:40:24.733Z,100194.50
2023-01-31T12:43:02.759Z,100200.09
2023-01-31T12:45:39.046Z,100201.63
2023-01-31T12:48:12.450Z,100197.91
2023-01-31T12:50:48.215Z,100197.38
2023-01-31T12:53:51.111Z,100200.41
2023-01-31T12:56:43.487Z,100203.25
2023-01-31T12:59:32.035Z,100206.00
2023-01-31T13:02:08.108Z,100209.50
2023-01-31T13:04:54.534Z,100208.38
2023-01-31T13:07:35.894Z,100204.03
2023-01-31T13:10:07.328Z,100209.94
2023-01-31T13:12:36.793Z,100207.19
2023-01-31T13:15:26.427Z,100219.03
2023-01-31T13:18:01.246Z,100213.13
2023-01-31T13:20:36.438Z,100213.75
2023-01-31T13:23:11.681Z,100214.50
2023-01-31T13:25:50.732Z,100227.25
2023-01-31T13:28:17.591Z,100217.78
2023-01-31T13:31:08.778Z,100228.16
2023-01-31T13:33:41.165Z,100228.22
2023-01-31T13:36:38.415Z,100222.47
2023-01-31T13:39:30.841Z,100224.63
2023-01-31T13:41:58.453Z,100220.81
2023-01-31T13:44:25.374Z,100224.31
2023-01-31T13:47:01.294Z,100223.84
2023-01-31T13:49:31.293Z,100231.47
2023-01-31T13:52:02.344Z,100235.59
2023-01-31T13:54:37.614Z,100235.13
2023-01-31T13:57:06.273Z,100236.19
2023-01-31T13:59:37.876Z,100240.25
2023-01-31T14:02:17.196Z,100247.09
2023-01-31T14:04:47.167Z,100255.25
2023-01-31T14:07:17.224Z,100245.13
2023-01-31T14:09:50.159Z,100247.59
2023-01-31T14:12:17.259Z,100249.81
2023-01-31T14:14:46.617Z,100259.63
2023-01-31T14:17:23.949Z,100264.25
2023-01-31T14:19:50.734Z,100259.09
2023-01-31T14:22:22.121Z,100273.53
2023-01-31T14:24:56.775Z,100279.78
2023-01-31T14:27:24.987Z,100275.41
2023-01-31T14:30:18.053Z,100273.28
2023-01-31T14:33:08.157Z,100270.00
2023-01-31T14:35:58.389Z,100273.81
2023-01-31T14:38:31.321Z,100277.66
2023-01-31T14:41:07.819Z,100280.09
2023-01-31T14:43:49.862Z,100283.34
2023-01-31T14:46:28.111Z,100285.28
2023-01-31T14:49:27.185Z,100281.72
2023-01-31T14:52:12.704Z,100286.09
2023-01-31T14:55:04.088Z,100291.81
2023-01-31T14:57:43.197Z,100297.28
2023-01-31T15:00:19.370Z,100300.78
2023-01-31T15:03:02.026Z,100306.47
2023-01-31T15:05:31.992Z,100298.88
2023-01-31T15:08:07.417Z,100307.31
2023-01-31T15:10:54.255Z,100303.78
2023-01-31T15:13:44.348Z,100310.00
2023-01-31T15:30:03.066Z,100327.78
2023-01-31T15:32:43.619Z,100328.91
2023-01-31T15:35:24.955Z,100336.28
2023-01-31T15:38:30.143Z,100341.22
2023-01-31T15:41:06.315Z,100335.53
2023-01-31T15:43:33.534Z,100340.13
2023-01-31T15:46:13.410Z,100348.53
2023-01-31T15:48:43.403Z,100350.44
2023-01-31T15:54:08.522Z,100362.94
2023-01-31T15:56:39.401Z,100360.78
2023-01-31T15:59:13.121Z,100368.41
2023-01-31T16:01:40.332Z,100368.94
2023-01-31T16:04:07.702Z,100367.03
2023-01-31T16:06:38.590Z,100381.13
2023-01-31T16:09:07.245Z,100385.75
2023-01-31T16:11:36.113Z,100385.25
2023-01-31T16:14:06.056Z,100388.78
2023-01-31T16:16:35.457Z,100387.41
2023-01-31T16:19:03.931Z,100400.75
2023-01-31T16:21:42.824Z,100390.69
2023-01-31T16:24:20.722Z,100395.03
2023-01-31T16:27:15.453Z,100395.31
2023-01-31T16:29:46.742Z,100404.53
2023-01-31T16:32:22.524Z,100403.16
2023-01-31T16:35:33.804Z,100403.44
2023-01-31T16:38:08.027Z,100401.81
2023-01-31T16:40:37.549Z,100405.06
2023-01-31T16:43:21.460Z,100399.38
2023-01-31T16:45:55.630Z,100405.88
2023-01-31T16:48:22.450Z,100402.63
2023-01-31T16:50:53.010Z,100405.06
2023-01-31T16:53:28.653Z,100402.34
2023-01-31T16:56:14.005Z,100408.84
2023-01-31T16:58:57.643Z,100403.97
2023-01-31T17:01:34.597Z,100412.44
2023-01-31T17:04:09.209Z,100413.50
2023-01-31T17:06:37.408Z,100409.69
2023-01-31T17:09:06.893Z,100412.16
2023-01-31T17:11:42.773Z,100417.00
2023-01-31T17:14:10.795Z,100414.03
2023-01-31T17:16:37.794Z,100406.97
2023-01-31T17:19:04.645Z,100410.75
2023-01-31T17:21:37.840Z,100416.97
2023-01-31T17:24:04.950Z,100420.84
2023-01-31T17:26:31.896Z,100424.13
2023-01-31T17:29:02.136Z,100426.00
2023-01-31T17:31:31.432Z,100427.63
2023-01-31T17:33:58.605Z,100426.53
2023-01-31T17:36:25.439Z,100428.13
2023-01-31T17:38:53.489Z,100431.13
2023-01-31T17:41:24.705Z,100433.56
2023-01-31T17:43:51.939Z,100435.78
2023-01-31T17:46:19.418Z,100439.59
2023-01-31T17:48:46.367Z,100437.41
2023-01-31T17:51:13.427Z,100444.97
2023-01-31T17:53:49.451Z,100436.50
2023-01-31T17:56:18.719Z,100447.13
2023-01-31T17:58:45.830Z,100444.13
2023-01-31T18:01:14.412Z,100454.22
2023-01-31T18:03:42.442Z,100450.38
2023-01-31T18:06:10.156Z,100452.06
2023-01-31T18:08:37.583Z,100452.84
2023-01-31T18:11:10.800Z,100454.50
2023-01-31T18:13:38.471Z,100454.50
2023-01-31T18:16:14.879Z,100453.66
2023-01-31T18:18:44.258Z,100461.81
2023-01-31T18:21:16.196Z,100460.72
2023-01-31T18:23:43.225Z,100453.38
2023-01-31T18:26:11.241Z,100450.16
2023-01-31T18:28:38.103Z,100447.16
2023-01-31T18:31:10.582Z,100461.03
2023-01-31T18:33:38.244Z,100446.84
2023-01-31T18:36:06.111Z,100441.72
2023-01-31T18:38:33.016Z,100449.03
2023-01-31T18:41:02.750Z,100455.28
2023-01-31T18:43:29.937Z,100458.00
2023-01-31T18:45:56.810Z,100450.97
2023-01-31T18:48:24.301Z,100453.66
2023-01-31T18:50:51.250Z,100452.09
2023-01-31T18:53:18.178Z,100455.34
2023-01-31T18:55:44.951Z,100454.28
2023-01-31T18:58:11.924Z,100448.53
2023-01-31T19:00:38.809Z,100457.22
2023-01-31T19:03:05.701Z,100459.16
2023-01-31T19:05:32.519Z,100449.34
2023-01-31T19:07:59.411Z,100449.31
2023-01-31T19:10:26.327Z,100450.97
2023-01-31T19:12:53.185Z,100452.59
2023-01-31T19:15:20.353Z,100459.66
2023-01-31T19:17:47.244Z,100457.47
2023-01-31T19:20:14.178Z,100460.16
2023-01-31T19:22:41.021Z,100453.09
2023-01-31T19:25:10.008Z,100474.50
2023-01-31T19:27:36.849Z,100458.44
2023-01-31T19:30:04.112Z,100467.16
2023-01-31T19:32:31.386Z,100463.59
2023-01-31T19:34:58.250Z,100468.22
2023-01-31T19:37:25.192Z,100468.78
2023-01-31T19:39:52.065Z,100461.41
2023-01-31T19:42:19.027Z,100459.69
2023-01-31T19:44:45.936Z,100464.56
2023-01-31T19:47:12.797Z,100458.84
2023-01-31T19:49:39.671Z,100462.34
2023-01-31T19:52:06.533Z,100460.66
2023-01-31T19:54:33.401Z,100460.66
2023-01-31T19:57:00.283Z,100458.75
2023-01-31T19:59:27.242Z,100463.94
2023-01-31T20:01:54.242Z,100467.25
2023-01-31T20:04:21.161Z,100468.06
2023-01-31T20:06:49.468Z,100470.53
2023-01-31T20:09:20.303Z,100469.44
2023-01-31T20:11:47.323Z,100464.78
2023-01-31T20:14:14.288Z,100463.41
2023-01-31T20:16:41.159Z,100460.13
2023-01-31T20:19:08.355Z,100465.31
2023-01-31T20:21:35.411Z,100460.44
2023-01-31T20:24:02.542Z,100456.28
2023-01-31T20:26:30.007Z,100459.91
2023-01-31T20:31:59.278Z,100447.63
2023-01-31T20:34:26.310Z,100450.06
2023-01-31T20:36:53.138Z,100458.28
2023-01-31T20:39:19.985Z,100456.47
2023-01-31T20:41:46.839Z,100460.78
2023-01-31T20:44:13.708Z,100466.31
2023-01-31T20:46:41.837Z,100458.50
2023-01-31T20:49:08.937Z,100468.84
2023-01-31T20:51:35.923Z,100472.91
2023-01-31T20:54:03.967Z,100472.41
2023-01-31T20:56:30.851Z,100483.88
2023-01-31T20:58:57.821Z,100477.34
2023-01-31T21:01:25.091Z,100479.88
2023-01-31T21:03:52.101Z,100476.56
2023-01-31T21:06:18.994Z,100467.31
2023-01-31T21:08:48.356Z,100477.16
2023-01-31T21:11:15.579Z,100473.09
2023-01-31T21:13:44.037Z,100488.38
2023-01-31T21:16:12.219Z,100482.94
2023-01-31T21:18:40.318Z,100485.69
2023-01-31T21:21:09.612Z,100491.44
2023-01-31T21:23:38.472Z,100483.25
2023-01-31T21:26:08.276Z,100485.22
2023-01-31T21:28:35.622Z,100485.50
2023-01-31T21:31:06.375Z,100483.59
2023-01-31T21:33:33.394Z,100481.44
2023-01-31T21:36:07.325Z,100485.00
2023-01-31T21:38:34.328Z,100485.00
2023-01-31T21:41:19.993Z,100483.91
2023-01-31T21:43:46.943Z,100485.56
2023-01-31T21:46:15.108Z,100488.00
2023-01-31T21:48:42.323Z,100488.56
2023-01-31T21:51:11.810Z,100485.84
2023-01-31T21:53:39.596Z,100490.75
2023-01-31T21:56:12.895Z,100492.66
2023-01-31T21:58:41.382Z,100492.09
2023-01-31T22:01:12.450Z,100489.13
2023-01-31T22:03:44.368Z,100492.16
2023-01-31T22:06:14.026Z,100496.50
2023-01-31T22:08:41.383Z,100486.72
2023-01-31T22:11:13.895Z,100489.69
2023-01-31T22:13:49.607Z,100495.13
2023-01-31T22:16:20.788Z,100483.16
2023-01-31T22:18:48.728Z,100489.38
2023-01-31T22:21:21.135Z,100491.28
2023-01-31T22:23:50.453Z,100492.94
2023-01-31T22:26:24.279Z,100491.28
2023-01-31T22:28:52.006Z,100491.56
2023-01-31T22:31:19.422Z,100480.72
2023-01-31T22:33:46.655Z,100485.59
2023-01-31T22:36:15.001Z,100480.69
2023-01-31T22:38:42.689Z,100485.56
2023-01-31T22:41:12.170Z,100482.84
2023-01-31T22:43:41.364Z,100479.03
2023-01-31T22:46:11.227Z,100480.69
2023-01-31T22:48:38.200Z,100479.84
2023-01-31T22:51:10.150Z,100476.84
2023-01-31T22:53:38.412Z,100474.13
2023-01-31T22:56:08.170Z,100469.22
2023-01-31T22:58:35.081Z,100473.88
2023-01-31T23:01:02.281Z,100479.81
2023-01-31T23:03:29.214Z,100477.66
2023-01-31T23:05:56.130Z,100473.84
2023-01-31T23:08:23.107Z,100474.38
2023-01-31T23:10:49.892Z,100476.88
2023-01-31T23:13:16.779Z,100480.91
2023-01-31T23:15:43.750Z,100476.31
2023-01-31T23:18:16.084Z,100464.63
2023-01-31T23:20:43.149Z,100472.50
2023-01-31T23:23:10.082Z,100471.13
2023-01-31T23:25:36.984Z,100467.34
2023-01-31T23:28:03.907Z,100474.16
2023-01-31T23:30:30.892Z,100485.88
2023-01-31T23:32:57.899Z,100481.25
2023-01-31T23:35:25.028Z,100481.81
2023-01-31T23:37:52.037Z,100479.06
2023-01-31T23:40:19.147Z,100491.31
2023-01-31T23:42:46.176Z,100480.69
2023-01-31T23:45:13.040Z,100481.53
2023-01-31T23:47:43.332Z,100482.91
2023-01-31T23:50:11.228Z,100478.56
2023-01-31T23:52:38.730Z,100486.72
2023-01-31T23:55:06.326Z,100485.09
2023-01-31T23:57:33.252Z,100490.81
